createdAt,value
2019-02-25T00:00:53.731Z,7.67
2019-02-25T00:03:23.241Z,8.57
2019-02-25T00:05:50.584Z,9.10
2019-02-25T00:08:17.991Z,7.60
2019-02-25T00:10:45.292Z,8.70
2019-02-25T00:13:12.643Z,7.37
2019-02-25T00:15:40.096Z,7.83
2019-02-25T00:18:07.127Z,8.60
2019-02-25T00:20:34.492Z,7.93
2019-02-25T00:23:01.878Z,7.87
2019-02-25T00:25:29.188Z,8.47
2019-02-25T00:27:57.676Z,7.37
2019-02-25T00:30:25.029Z,8.00
2019-02-25T00:32:52.164Z,9.13
2019-02-25T00:35:19.206Z,8.07
2019-02-25T00:37:47.523Z,8.57
2019-02-25T00:40:14.788Z,9.10
2019-02-25T00:42:42.069Z,7.87
2019-02-25T00:45:09.963Z,7.23
2019-02-25T00:47:37.480Z,7.30
2019-02-25T00:50:07.136Z,8.33
2019-02-25T00:52:34.070Z,8.27
2019-02-25T00:55:02.744Z,7.33
2019-02-25T00:57:29.819Z,10.77
2019-02-25T00:59:57.343Z,9.17
2019-02-25T01:02:24.480Z,9.20
2019-02-25T01:04:52.181Z,9.43
2019-02-25T01:07:19.529Z,9.23
2019-02-25T01:09:46.781Z,8.63
2019-02-25T01:12:13.759Z,9.53
2019-02-25T01:14:40.788Z,9.67
2019-02-25T01:17:08.220Z,9.57
2019-02-25T01:19:35.179Z,10.10
2019-02-25T01:22:02.159Z,9.50
2019-02-25T01:24:29.402Z,8.97
2019-02-25T01:26:56.947Z,8.83
2019-02-25T01:29:24.603Z,9.33
2019-02-25T01:31:51.504Z,7.77
2019-02-25T01:34:18.455Z,10.03
2019-02-25T01:36:45.748Z,8.77
2019-02-25T01:39:12.828Z,9.00
2019-02-25T01:41:40.051Z,12.37
2019-02-25T01:44:07.171Z,9.33
2019-02-25T01:46:34.108Z,9.30
2019-02-25T01:49:01.530Z,10.37
2019-02-25T01:51:28.747Z,9.70
2019-02-25T01:53:56.036Z,11.40
2019-02-25T01:56:23.038Z,10.50
2019-02-25T01:58:50.053Z,8.40
2019-02-25T02:01:18.334Z,8.03
2019-02-25T02:03:46.351Z,8.93
2019-02-25T02:06:13.607Z,7.50
2019-02-25T02:08:40.965Z,9.00
2019-02-25T02:11:08.128Z,7.93
2019-02-25T02:13:35.489Z,7.63
2019-02-25T02:16:03.012Z,8.03
2019-02-25T02:18:30.371Z,8.83
2019-02-25T02:20:58.472Z,8.50
2019-02-25T02:23:25.701Z,7.83
2019-02-25T02:25:53.084Z,9.03
2019-02-25T02:28:20.412Z,7.50
2019-02-25T02:30:47.342Z,7.70
2019-02-25T02:33:14.843Z,7.47
2019-02-25T02:35:42.203Z,9.10
2019-02-25T02:38:09.532Z,8.70
2019-02-25T02:40:36.796Z,8.13
2019-02-25T02:43:03.972Z,10.43
2019-02-25T02:45:40.076Z,8.10
2019-02-25T02:48:12.995Z,8.33
2019-02-25T02:50:40.336Z,10.20
2019-02-25T02:53:07.595Z,10.57
2019-02-25T02:55:34.828Z,7.87
2019-02-25T02:58:02.415Z,8.00
2019-02-25T03:00:29.789Z,8.10
2019-02-25T03:02:57.208Z,7.10
2019-02-25T03:05:24.142Z,8.23
2019-02-25T03:07:51.160Z,9.40
2019-02-25T03:10:18.540Z,10.17
2019-02-25T03:12:45.860Z,10.80
2019-02-25T03:15:15.127Z,8.97
2019-02-25T03:17:42.060Z,7.37
2019-02-25T03:20:09.315Z,8.13
2019-02-25T03:22:36.237Z,7.63
2019-02-25T03:25:04.561Z,9.33
2019-02-25T03:27:32.609Z,9.70
2019-02-25T03:29:59.853Z,8.73
2019-02-25T03:32:26.756Z,9.03
2019-02-25T03:34:54.260Z,9.37
2019-02-25T03:37:21.347Z,9.87
2019-02-25T03:39:48.267Z,9.10
2019-02-25T03:42:15.471Z,8.23
2019-02-25T03:44:43.839Z,9.33
2019-02-25T03:47:11.315Z,9.83
2019-02-25T03:49:38.220Z,9.88
2019-02-25T03:52:05.407Z,9.38
2019-02-25T03:54:32.764Z,9.15
2019-02-25T03:57:00.180Z,8.57
2019-02-25T03:59:27.443Z,10.93
2019-02-25T04:01:54.893Z,9.43
2019-02-25T04:04:22.420Z,9.28
2019-02-25T04:06:49.954Z,9.07
2019-02-25T04:09:17.768Z,8.63
2019-02-25T04:11:44.770Z,9.35
2019-02-25T04:14:11.928Z,10.10
2019-02-25T04:16:39.664Z,8.57
2019-02-25T04:19:06.855Z,9.58
2019-02-25T04:21:34.052Z,9.53
2019-02-25T04:24:01.178Z,8.83
2019-02-25T04:26:28.123Z,9.10
2019-02-25T04:28:55.041Z,9.47
2019-02-25T04:31:22.509Z,9.95
2019-02-25T04:33:49.584Z,9.20
2019-02-25T04:36:16.618Z,10.20
2019-02-25T04:38:44.510Z,6.90
2019-02-25T04:41:11.446Z,8.93
2019-02-25T04:43:38.779Z,8.63
2019-02-25T04:46:05.812Z,9.35
2019-02-25T04:48:32.879Z,9.27
2019-02-25T04:50:59.811Z,9.30
2019-02-25T04:53:27.133Z,9.43
2019-02-25T04:55:55.077Z,9.50
2019-02-25T04:58:22.396Z,10.50
2019-02-25T05:00:49.331Z,8.90
2019-02-25T05:03:16.899Z,9.77
2019-02-25T05:05:44.405Z,7.87
2019-02-25T05:08:12.192Z,10.30
2019-02-25T05:10:39.859Z,9.95
2019-02-25T05:13:07.351Z,9.10
2019-02-25T05:15:35.310Z,8.70
2019-02-25T05:18:02.881Z,8.23
2019-02-25T05:20:29.940Z,8.27
2019-02-25T05:22:56.859Z,9.43
2019-02-25T05:25:26.065Z,8.67
2019-02-25T05:27:53.282Z,8.73
2019-02-25T05:30:20.896Z,8.90
2019-02-25T05:32:48.486Z,7.43
2019-02-25T05:35:15.864Z,8.50
2019-02-25T05:37:43.388Z,8.70
2019-02-25T05:40:12.298Z,8.50
2019-02-25T05:42:39.444Z,9.60
2019-02-25T05:45:06.889Z,9.67
2019-02-25T05:47:33.812Z,10.27
2019-02-25T05:50:01.563Z,9.47
2019-02-25T05:52:28.484Z,7.13
2019-02-25T05:54:56.409Z,8.77
2019-02-25T05:57:23.940Z,10.57
2019-02-25T05:59:51.279Z,11.05
2019-02-25T06:02:18.287Z,9.10
2019-02-25T06:04:45.488Z,8.57
2019-02-25T06:07:12.407Z,9.53
2019-02-25T06:09:39.926Z,9.03
2019-02-25T06:12:07.179Z,9.60
2019-02-25T06:14:34.456Z,11.03
2019-02-25T06:17:01.580Z,10.17
2019-02-25T06:19:29.140Z,9.53
2019-02-25T06:21:56.144Z,11.12
2019-02-25T06:24:23.091Z,8.67
2019-02-25T06:26:50.095Z,9.08
2019-02-25T06:29:17.423Z,9.73
2019-02-25T06:31:44.440Z,8.67
2019-02-25T06:34:12.101Z,10.63
2019-02-25T06:36:40.233Z,9.47
2019-02-25T06:39:08.308Z,9.90
2019-02-25T06:41:35.662Z,10.27
2019-02-25T06:44:02.723Z,14.03
2019-02-25T06:46:30.362Z,9.15
2019-02-25T06:48:57.747Z,9.67
2019-02-25T06:51:25.019Z,9.15
2019-02-25T06:53:52.745Z,9.40
2019-02-25T06:56:19.932Z,8.43
2019-02-25T06:58:46.927Z,9.20
2019-02-25T07:01:14.798Z,8.23
2019-02-25T07:03:43.643Z,9.00
2019-02-25T07:06:24.975Z,8.53
2019-02-25T07:09:07.881Z,10.57
2019-02-25T07:12:03.836Z,9.38
2019-02-25T07:14:51.796Z,8.13
2019-02-25T07:17:28.397Z,10.67
2019-02-25T07:20:04.146Z,9.58
2019-02-25T07:22:43.109Z,9.58
2019-02-25T07:25:31.742Z,10.63
2019-02-25T07:28:21.500Z,9.77
2019-02-25T07:31:03.114Z,10.60
2019-02-25T07:33:49.728Z,9.80
2019-02-25T07:36:39.883Z,10.13
2019-02-25T07:39:29.595Z,12.27
2019-02-25T07:42:05.574Z,11.63
2019-02-25T07:44:50.864Z,8.93
2019-02-25T07:47:26.075Z,10.43
2019-02-25T07:50:01.178Z,9.83
2019-02-25T07:52:36.247Z,9.87
2019-02-25T07:55:10.492Z,10.70
2019-02-25T07:57:43.379Z,9.80
2019-02-25T08:00:36.310Z,10.73
2019-02-25T08:03:26.192Z,8.93
2019-02-25T08:06:21.658Z,11.80
2019-02-25T08:09:07.555Z,9.90
2019-02-25T08:11:51.099Z,10.97
2019-02-25T08:14:36.348Z,10.13
2019-02-25T08:17:32.293Z,8.63
2019-02-25T08:20:22.202Z,11.47
2019-02-25T08:23:14.911Z,12.00
2019-02-25T08:26:00.585Z,8.93
2019-02-25T08:28:35.416Z,8.47
2019-02-25T08:31:09.306Z,10.23
2019-02-25T08:33:52.432Z,9.67
2019-02-25T08:37:15.245Z,10.27
2019-02-25T08:40:09.127Z,10.47
2019-02-25T08:42:41.771Z,10.47
2019-02-25T08:45:22.839Z,9.57
2019-02-25T08:47:58.720Z,10.67
2019-02-25T08:50:26.062Z,10.27
2019-02-25T08:52:53.354Z,12.20
2019-02-25T08:55:20.789Z,9.57
2019-02-25T08:57:48.167Z,11.93
2019-02-25T09:00:15.083Z,9.83
2019-02-25T09:02:42.300Z,8.50
2019-02-25T09:05:11.382Z,9.87
2019-02-25T09:07:38.530Z,10.40
2019-02-25T09:10:06.735Z,9.33
2019-02-25T09:12:33.854Z,10.10
2019-02-25T09:15:01.233Z,9.27
2019-02-25T09:17:28.404Z,11.37
2019-02-25T09:19:55.673Z,10.10
2019-02-25T09:22:22.847Z,10.43
2019-02-25T09:24:50.040Z,10.50
2019-02-25T09:27:17.204Z,10.67
2019-02-25T09:29:45.027Z,9.77
2019-02-25T09:32:12.233Z,10.30
2019-02-25T09:34:39.186Z,9.67
2019-02-25T09:37:06.713Z,10.13
2019-02-25T09:39:34.473Z,11.33
2019-02-25T09:42:03.980Z,10.00
2019-02-25T09:44:31.029Z,9.17
2019-02-25T09:46:58.267Z,9.43
2019-02-25T09:49:25.240Z,9.87
2019-02-25T09:51:52.400Z,8.47
2019-02-25T09:54:19.687Z,9.47
2019-02-25T09:56:47.130Z,10.37
2019-02-25T09:59:14.879Z,10.47
2019-02-25T10:01:42.124Z,9.90
2019-02-25T10:04:10.264Z,8.57
2019-02-25T10:06:37.771Z,8.73
2019-02-25T10:09:06.451Z,10.07
2019-02-25T10:11:33.700Z,9.23
2019-02-25T10:14:01.059Z,9.40
2019-02-25T10:16:28.578Z,7.97
2019-02-25T10:18:55.735Z,8.63
2019-02-25T10:21:22.898Z,10.87
2019-02-25T10:23:50.068Z,9.93
2019-02-25T10:26:17.048Z,9.07
2019-02-25T10:28:44.593Z,7.50
2019-02-25T10:31:13.144Z,9.77
2019-02-25T10:33:41.114Z,7.80
2019-02-25T10:36:08.030Z,8.80
2019-02-25T10:38:37.535Z,8.93
2019-02-25T10:41:05.142Z,8.83
2019-02-25T10:43:34.578Z,7.30
2019-02-25T10:46:02.616Z,7.03
2019-02-25T10:48:29.846Z,8.97
2019-02-25T10:50:56.745Z,7.33
2019-02-25T10:53:23.660Z,6.77
2019-02-25T10:56:14.545Z,6.13
2019-02-25T10:58:42.470Z,6.97
2019-02-25T11:01:13.385Z,6.10
2019-02-25T11:03:39.571Z,7.97
2019-02-25T11:06:07.056Z,7.10
2019-02-25T11:08:35.257Z,6.67
2019-02-25T11:11:08.630Z,6.87
2019-02-25T11:13:36.822Z,7.00
2019-02-25T11:16:04.061Z,5.83
2019-02-25T11:18:32.589Z,7.03
2019-02-25T11:21:01.286Z,6.27
2019-02-25T11:23:28.774Z,6.20
2019-02-25T11:25:56.303Z,6.57
2019-02-25T11:28:26.199Z,6.73
2019-02-25T11:30:54.746Z,5.73
2019-02-25T11:33:23.215Z,6.47
2019-02-25T11:35:51.527Z,5.20
2019-02-25T11:38:18.720Z,7.73
2019-02-25T11:40:46.141Z,6.80
2019-02-25T11:43:16.051Z,7.60
2019-02-25T11:45:42.922Z,5.50
2019-02-25T11:48:10.049Z,7.47
2019-02-25T11:50:37.008Z,9.07
2019-02-25T11:53:04.219Z,5.97
2019-02-25T11:55:31.271Z,6.37
2019-02-25T11:57:58.518Z,5.73
2019-02-25T12:00:25.543Z,6.03
2019-02-25T12:02:53.081Z,6.53
2019-02-25T12:05:20.228Z,4.83
2019-02-25T12:07:47.931Z,5.00
2019-02-25T12:10:15.069Z,5.63
2019-02-25T12:12:42.746Z,5.70
2019-02-25T12:15:11.642Z,4.53
2019-02-25T12:17:40.290Z,5.90
2019-02-25T12:20:08.907Z,5.10
2019-02-25T12:22:36.893Z,4.80
2019-02-25T12:25:04.947Z,6.07
2019-02-25T12:27:32.208Z,4.73
2019-02-25T12:29:59.784Z,4.53
2019-02-25T12:32:28.504Z,5.47
2019-02-25T12:34:56.004Z,5.27
2019-02-25T12:37:22.986Z,4.70
2019-02-25T12:39:50.139Z,5.17
2019-02-25T12:42:17.403Z,6.23
2019-02-25T12:44:44.323Z,5.13
2019-02-25T12:47:11.587Z,4.37
2019-02-25T12:49:38.521Z,4.73
2019-02-25T12:52:05.761Z,4.83
2019-02-25T12:54:32.715Z,4.73
2019-02-25T12:57:00.978Z,5.67
2019-02-25T12:59:27.919Z,5.00
2019-02-25T13:01:55.459Z,5.67
2019-02-25T13:04:22.636Z,5.10
2019-02-25T13:06:49.884Z,5.10
2019-02-25T13:09:16.817Z,6.17
2019-02-25T13:11:44.332Z,4.83
2019-02-25T13:14:11.784Z,7.90
2019-02-25T13:16:38.972Z,5.10
2019-02-25T13:19:06.364Z,7.43
2019-02-25T13:21:33.807Z,5.20
2019-02-25T13:24:01.996Z,7.53
2019-02-25T13:26:31.763Z,6.33
2019-02-25T13:28:59.398Z,5.17
2019-02-25T13:31:26.332Z,5.63
2019-02-25T13:33:53.696Z,6.27
2019-02-25T13:36:20.711Z,7.50
2019-02-25T13:38:48.754Z,5.97
2019-02-25T13:41:15.647Z,5.63
2019-02-25T13:43:42.584Z,6.57
2019-02-25T13:46:09.636Z,6.70
2019-02-25T13:48:37.387Z,7.40
2019-02-25T13:51:05.049Z,6.10
2019-02-25T13:53:32.526Z,5.83
2019-02-25T13:55:59.828Z,6.00
2019-02-25T13:58:26.950Z,6.27
2019-02-25T14:00:54.300Z,8.57
2019-02-25T14:03:21.403Z,6.90
2019-02-25T14:05:48.459Z,4.90
2019-02-25T14:08:15.840Z,5.33
2019-02-25T14:10:43.028Z,5.30
2019-02-25T14:13:10.110Z,9.10
2019-02-25T14:15:37.376Z,5.93
2019-02-25T14:18:04.983Z,7.63
2019-02-25T14:20:32.607Z,5.97
2019-02-25T14:23:00.627Z,9.53
2019-02-25T14:25:28.068Z,6.93
2019-02-25T14:27:55.945Z,5.70
2019-02-25T14:30:23.478Z,5.17
2019-02-25T14:32:53.357Z,5.67
2019-02-25T14:35:22.550Z,5.03
2019-02-25T14:37:49.665Z,6.00
2019-02-25T14:40:19.106Z,6.70
2019-02-25T14:42:48.796Z,5.63
2019-02-25T14:45:19.665Z,6.03
2019-02-25T14:47:46.979Z,5.27
2019-02-25T14:50:15.387Z,5.67
2019-02-25T14:52:42.909Z,4.87
2019-02-25T14:55:11.402Z,5.43
2019-02-25T14:57:40.843Z,5.00
2019-02-25T15:00:11.143Z,6.67
2019-02-25T15:02:41.460Z,6.17
2019-02-25T15:05:12.711Z,5.37
2019-02-25T15:07:40.084Z,5.03
2019-02-25T15:10:08.457Z,5.00
2019-02-25T15:12:37.778Z,4.93
2019-02-25T15:15:08.825Z,5.87
2019-02-25T15:17:36.239Z,5.07
2019-02-25T15:20:04.476Z,5.77
2019-02-25T15:22:33.965Z,5.10
2019-02-25T15:25:02.154Z,5.00
2019-02-25T15:27:29.898Z,6.90
2019-02-25T15:29:57.794Z,5.33
2019-02-25T15:32:25.552Z,5.10
2019-02-25T15:34:55.523Z,6.40
2019-02-25T15:37:23.305Z,6.07
2019-02-25T15:39:51.070Z,4.77
2019-02-25T15:42:19.252Z,6.67
2019-02-25T15:44:47.207Z,6.90
2019-02-25T15:47:15.988Z,5.53
2019-02-25T15:49:43.866Z,5.40
2019-02-25T15:52:16.566Z,9.27
2019-02-25T15:54:43.784Z,5.10
2019-02-25T15:57:12.762Z,5.40
2019-02-25T15:59:40.105Z,4.63
2019-02-25T16:02:09.396Z,5.97
2019-02-25T16:04:38.298Z,5.17
2019-02-25T16:07:08.141Z,5.10
2019-02-25T16:09:35.335Z,5.93
2019-02-25T16:12:04.936Z,4.80
2019-02-25T16:14:32.919Z,4.13
2019-02-25T16:17:00.331Z,4.30
2019-02-25T16:19:38.818Z,5.03
2019-02-25T16:22:02.732Z,4.30
2019-02-25T16:24:33.581Z,5.27
2019-02-25T16:27:02.603Z,5.33
2019-02-25T16:29:30.374Z,4.53
2019-02-25T16:32:01.648Z,4.67
2019-02-25T16:34:26.980Z,4.13
2019-02-25T16:36:55.992Z,4.17
2019-02-25T16:39:24.115Z,3.93
2019-02-25T16:41:51.574Z,4.73
2019-02-25T16:44:18.759Z,4.37
2019-02-25T16:46:46.814Z,5.10
2019-02-25T16:49:15.133Z,6.03
2019-02-25T16:51:44.051Z,3.97
2019-02-25T16:54:13.396Z,5.90
2019-02-25T16:56:40.964Z,4.93
2019-02-25T16:59:10.754Z,4.47
2019-02-25T17:01:39.780Z,4.57
2019-02-25T17:04:07.072Z,4.53
2019-02-25T17:06:34.331Z,5.97
2019-02-25T17:09:04.698Z,5.37
2019-02-25T17:11:37.927Z,5.03
2019-02-25T17:14:06.164Z,7.13
2019-02-25T17:16:33.400Z,5.97
2019-02-25T17:19:01.318Z,5.67
2019-02-25T17:21:34.098Z,6.83
2019-02-25T17:24:03.579Z,5.33
2019-02-25T17:26:31.767Z,4.80
2019-02-25T17:28:58.915Z,5.90
2019-02-25T17:31:25.969Z,5.13
2019-02-25T17:33:55.733Z,4.70
2019-02-25T17:36:23.274Z,5.03
2019-02-25T17:38:51.962Z,4.90
2019-02-25T17:41:19.211Z,7.20
2019-02-25T17:43:46.484Z,5.60
2019-02-25T17:46:14.564Z,5.67
2019-02-25T17:48:42.176Z,5.93
2019-02-25T17:51:09.694Z,5.83
2019-02-25T17:53:37.184Z,4.90
2019-02-25T17:56:04.919Z,6.83
2019-02-25T17:58:32.048Z,7.50
2019-02-25T18:01:01.070Z,6.63
2019-02-25T18:03:28.995Z,6.23
2019-02-25T18:05:56.872Z,6.40
2019-02-25T18:08:25.051Z,8.23
2019-02-25T18:10:54.052Z,7.43
2019-02-25T18:13:23.698Z,9.13
2019-02-25T18:15:53.228Z,6.03
2019-02-25T18:18:22.231Z,7.70
2019-02-25T18:20:52.869Z,7.37
2019-02-25T18:23:21.720Z,7.80
2019-02-25T18:25:49.810Z,6.30
2019-02-25T18:28:18.323Z,7.67
2019-02-25T18:30:46.941Z,8.37
2019-02-25T18:33:14.440Z,7.07
2019-02-25T18:35:43.056Z,9.43
2019-02-25T18:38:11.494Z,7.23
2019-02-25T18:40:42.916Z,6.03
2019-02-25T18:43:08.279Z,8.30
2019-02-25T18:45:37.837Z,7.43
2019-02-25T18:48:06.473Z,7.43
2019-02-25T18:50:34.092Z,7.70
2019-02-25T18:53:01.913Z,6.70
2019-02-25T18:55:34.567Z,8.17
2019-02-25T18:58:04.783Z,8.77
2019-02-25T19:00:34.145Z,5.50
2019-02-25T19:03:04.227Z,7.53
2019-02-25T19:05:31.711Z,7.97
2019-02-25T19:07:59.327Z,9.00
2019-02-25T19:10:26.926Z,7.87
2019-02-25T19:12:56.452Z,7.40
2019-02-25T19:15:24.571Z,7.63
2019-02-25T19:17:54.230Z,8.80
2019-02-25T19:20:21.857Z,8.93
2019-02-25T19:22:50.286Z,8.87
2019-02-25T19:25:20.049Z,7.53
2019-02-25T19:27:47.977Z,7.07
2019-02-25T19:30:19.456Z,9.57
2019-02-25T19:32:46.633Z,8.97
2019-02-25T19:35:14.982Z,8.33
2019-02-25T19:37:44.325Z,8.70
2019-02-25T19:40:14.906Z,10.37
2019-02-25T19:42:43.297Z,7.33
2019-02-25T19:45:12.210Z,7.30
2019-02-25T19:47:43.144Z,7.30
2019-02-25T19:50:11.726Z,6.90
2019-02-25T19:52:40.072Z,9.43
2019-02-25T19:55:10.533Z,8.30
2019-02-25T19:57:39.021Z,8.77
2019-02-25T20:00:09.896Z,7.20
2019-02-25T20:02:37.248Z,8.27
2019-02-25T20:05:09.609Z,7.73
2019-02-25T20:07:35.939Z,7.97
2019-02-25T20:10:03.923Z,8.10
2019-02-25T20:12:35.627Z,7.70
2019-02-25T20:15:09.009Z,9.87
2019-02-25T20:17:35.492Z,9.80
2019-02-25T20:20:04.924Z,8.60
2019-02-25T20:22:34.386Z,6.87
2019-02-25T20:25:02.806Z,7.03
2019-02-25T20:27:32.199Z,9.23
2019-02-25T20:30:00.259Z,7.73
2019-02-25T20:32:32.494Z,8.40
2019-02-25T20:35:00.948Z,8.00
2019-02-25T20:37:29.350Z,9.93
2019-02-25T20:39:57.638Z,10.10
2019-02-25T20:42:26.213Z,8.63
2019-02-25T20:44:55.295Z,8.07
2019-02-25T20:47:23.428Z,8.20
2019-02-25T20:49:53.116Z,9.00
2019-02-25T20:52:20.241Z,7.13
2019-02-25T20:54:49.576Z,8.33
2019-02-25T20:57:18.592Z,9.17
2019-02-25T20:59:48.425Z,8.17
2019-02-25T21:02:16.277Z,8.13
2019-02-25T21:04:46.028Z,6.83
2019-02-25T21:07:13.945Z,7.87
2019-02-25T21:09:42.267Z,7.20
2019-02-25T21:12:10.532Z,9.37
2019-02-25T21:14:41.164Z,8.53
2019-02-25T21:17:08.337Z,8.60
2019-02-25T21:19:36.139Z,9.53
2019-02-25T21:22:06.586Z,8.50
2019-02-25T21:24:35.402Z,8.23
2019-02-25T21:27:03.760Z,7.37
2019-02-25T21:29:34.833Z,7.67
2019-02-25T21:32:04.388Z,6.70
2019-02-25T21:34:33.003Z,7.47
2019-02-25T21:37:01.267Z,8.40
2019-02-25T21:39:29.722Z,9.13
2019-02-25T21:41:56.909Z,8.20
2019-02-25T21:44:26.405Z,8.27
2019-02-25T21:46:55.699Z,7.67
2019-02-25T21:49:27.013Z,8.83
2019-02-25T21:51:52.255Z,7.53
2019-02-25T21:54:19.414Z,9.50
2019-02-25T21:56:46.659Z,8.00
2019-02-25T21:59:14.962Z,8.97
2019-02-25T22:01:43.435Z,9.20
2019-02-25T22:04:13.157Z,8.20
2019-02-25T22:06:39.880Z,8.33
2019-02-25T22:09:07.353Z,7.90
2019-02-25T22:11:36.372Z,9.10
2019-02-25T22:14:03.865Z,7.53
2019-02-25T22:16:32.121Z,10.53
2019-02-25T22:18:59.295Z,10.57
2019-02-25T22:21:26.897Z,11.23
2019-02-25T22:23:56.163Z,9.57
2019-02-25T22:26:27.203Z,8.50
2019-02-25T22:28:53.225Z,10.50
2019-02-25T22:31:21.004Z,9.83
2019-02-25T22:33:47.926Z,10.10
2019-02-25T22:36:15.079Z,9.60
2019-02-25T22:38:42.393Z,8.30
2019-02-25T22:41:10.619Z,10.07
2019-02-25T22:43:39.644Z,8.93
2019-02-25T22:46:09.940Z,8.63
2019-02-25T22:48:39.732Z,8.77
2019-02-25T22:51:07.049Z,9.97
2019-02-25T22:53:34.445Z,9.90
2019-02-25T22:56:01.704Z,8.63
2019-02-25T22:58:31.598Z,8.97
2019-02-25T23:01:07.543Z,10.27
2019-02-25T23:03:36.858Z,9.77
2019-02-25T23:06:04.204Z,8.57
2019-02-25T23:08:31.239Z,9.90
2019-02-25T23:10:58.640Z,9.27
2019-02-25T23:13:29.351Z,9.13
2019-02-25T23:15:55.119Z,8.20
2019-02-25T23:18:25.091Z,7.67
2019-02-25T23:20:53.144Z,8.50
2019-02-25T23:23:21.332Z,9.57
2019-02-25T23:25:51.298Z,8.90
2019-02-25T23:28:22.913Z,9.00
2019-02-25T23:30:50.219Z,10.07
2019-02-25T23:33:21.284Z,8.33
2019-02-25T23:35:47.414Z,8.27
2019-02-25T23:38:15.547Z,9.17
2019-02-25T23:40:45.047Z,10.10
2019-02-25T23:43:14.501Z,9.43
2019-02-25T23:45:42.028Z,10.37
2019-02-25T23:48:11.717Z,9.40
2019-02-25T23:50:39.149Z,10.30
2019-02-25T23:53:06.092Z,15.10
2019-02-25T23:55:33.560Z,8.53
2019-02-25T23:58:02.764Z,9.33
